Time;durP1;ratioP1;P1;durP2;ratioP2;P2;SDS_P1;SDS_P2;PMS_P1;PMS_P2;Temp;Humidity;BMP_temperature;BMP_pressure;BME280_temperature;BME280_humidity;BME280_pressure;Samples;Min_cycle;Max_cycle;Signal;HPM_P1;HPM_P2
2022/03/10 00:01:40;;;;;;;;;;;4.80;74.10;;;;;;4866729;29;19923;-84
2022/03/10 00:04:08;;;;;;;;;;;4.80;74.00;;;;;;4882440;29;19919;-86
2022/03/10 00:06:33;;;;;;;;;;;4.80;74.00;;;;;;4898209;29;19915;-85
2022/03/10 00:08:59;;;;;;;;;;;4.80;73.90;;;;;;4897863;29;20284;-85
2022/03/10 00:11:27;;;;;;;;;;;4.80;73.90;;;;;;4898031;29;19911;-84
2022/03/10 00:13:53;;;;;;;;;;;4.80;74.10;;;;;;4899163;29;20007;-83
2022/03/10 00:16:18;;;;;;;;;;;4.70;74.30;;;;;;4897815;29;19951;-85
2022/03/10 00:18:44;;;;;;;;;;;4.60;74.40;;;;;;4882308;29;19952;-84
2022/03/10 00:21:12;;;;;;;;;;;4.60;74.80;;;;;;4897350;29;19918;-85
2022/03/10 00:23:38;;;;;;;;;;;4.60;75.20;;;;;;4897572;29;19963;-84
2022/03/10 00:26:03;;;;;;;;;;;4.50;75.40;;;;;;4897249;29;19920;-84
2022/03/10 00:28:29;;;;;;;;;;;4.50;75.50;;;;;;4899750;29;19912;-85
2022/03/10 00:30:55;;;;;;;;;;;4.40;75.80;;;;;;4885292;29;19961;-84
2022/03/10 00:33:23;;;;;;;;;;;4.40;76.00;;;;;;4900931;29;19911;-84
2022/03/10 00:35:48;;;;;;;;;;;4.30;76.10;;;;;;4901269;29;19911;-85
2022/03/10 00:38:14;;;;;;;;;;;4.30;76.30;;;;;;4885278;29;19924;-82
2022/03/10 00:40:40;;;;;;;;;;;4.30;76.50;;;;;;4900756;29;19924;-84
2022/03/10 00:43:14;;;;;;;;;;;4.20;76.70;;;;;;4901160;29;19922;-85
2022/03/10 00:45:43;;;;;;;;;;;4.20;76.90;;;;;;4901190;29;19912;-85
2022/03/10 00:48:11;;;;;;;;;;;4.10;77.10;;;;;;4901326;29;20018;-85
2022/03/10 00:50:37;;;;;;;;;;;4.10;77.20;;;;;;4870476;29;20051;-85
2022/03/10 00:53:03;;;;;;;;;;;4.00;77.30;;;;;;4904292;29;19919;-84
2022/03/10 00:55:28;;;;;;;;;;;4.00;77.50;;;;;;4924680;29;19899;-84
2022/03/10 00:58:12;;;;;;;;;;;3.90;77.50;;;;;;4924734;29;19920;-85
2022/03/10 01:00:38;;;;;;;;;;;3.90;77.60;;;;;;4922549;29;19970;-85
2022/03/10 01:03:04;;;;;;;;;;;3.90;77.80;;;;;;4908151;29;19959;-84
2022/03/10 01:05:35;;;;;;;;;;;3.80;78.00;;;;;;4900894;29;19967;-84
2022/03/10 01:08:04;;;;;;;;;;;3.80;78.10;;;;;;4902435;29;19912;-83
2022/03/10 01:10:29;;;;;;;;;;;3.80;78.30;;;;;;4900994;29;19967;-84
2022/03/10 01:12:57;;;;;;;;;;;3.70;78.40;;;;;;4900639;29;19919;-85
2022/03/10 01:15:24;;;;;;;;;;;3.70;78.50;;;;;;4900380;29;19967;-85
2022/03/10 01:17:50;;;;;;;;;;;3.60;78.50;;;;;;4900576;29;19982;-85
2022/03/10 01:20:22;;;;;;;;;;;3.60;78.60;;;;;;4900389;29;20439;-85
2022/03/10 01:22:51;;;;;;;;;;;3.60;78.70;;;;;;4901792;29;20006;-84
2022/03/10 01:25:20;;;;;;;;;;;3.60;78.70;;;;;;4900054;29;19912;-84
2022/03/10 01:27:46;;;;;;;;;;;3.50;78.70;;;;;;4900625;29;19919;-85
2022/03/10 01:30:12;;;;;;;;;;;3.50;78.80;;;;;;4900421;29;19911;-85
2022/03/10 01:32:38;;;;;;;;;;;3.50;79.00;;;;;;4899777;29;20309;-83
2022/03/10 01:35:05;;;;;;;;;;;3.50;79.20;;;;;;4886277;29;19975;-84
2022/03/10 01:37:36;;;;;;;;;;;3.40;79.20;;;;;;4901196;29;20343;-85
2022/03/10 01:40:13;;;;;;;;;;;3.40;79.20;;;;;;4902305;29;19923;-84
2022/03/10 01:42:42;;;;;;;;;;;3.40;79.40;;;;;;4885804;29;20328;-84
2022/03/10 01:45:09;;;;;;;;;;;3.30;79.40;;;;;;4900919;29;19955;-84
2022/03/10 01:47:35;;;;;;;;;;;3.30;79.50;;;;;;4899923;29;19945;-84
2022/03/10 01:50:17;;;;;;;;;;;3.30;79.60;;;;;;4900064;29;20260;-84
2022/03/10 01:52:51;;;;;;;;;;;3.30;79.70;;;;;;4900005;29;19912;-84
2022/03/10 01:55:18;;;;;;;;;;;3.20;79.80;;;;;;4884203;29;19998;-85
2022/03/10 01:57:44;;;;;;;;;;;3.20;80.00;;;;;;4899688;29;19923;-84
2022/03/10 02:00:13;;;;;;;;;;;3.20;80.00;;;;;;4883918;29;19911;-84
2022/03/10 02:02:38;;;;;;;;;;;3.20;80.10;;;;;;4899726;29;19987;-84
2022/03/10 02:05:04;;;;;;;;;;;3.20;80.30;;;;;;4899252;29;20396;-83
2022/03/10 02:10:20;;;;;;;;;;;3.10;80.50;;;;;;4887129;29;20420;-84
2022/03/10 02:12:51;;;;;;;;;;;3.10;80.60;;;;;;4899707;29;19934;-84
2022/03/10 02:18:06;;;;;;;;;;;3.10;80.60;;;;;;4901932;29;19954;-83
2022/03/10 02:20:32;;;;;;;;;;;3.00;80.60;;;;;;4919888;29;19947;-83
2022/03/10 02:22:58;;;;;;;;;;;3.00;80.80;;;;;;4918508;29;19927;-83
2022/03/10 02:25:24;;;;;;;;;;;3.00;81.60;;;;;;4915861;29;20025;-85
2022/03/10 02:27:51;;;;;;;;;;;3.00;81.40;;;;;;4884403;29;19911;-85
2022/03/10 02:30:16;;;;;;;;;;;3.00;81.20;;;;;;4901125;29;19958;-84
2022/03/10 02:32:42;;;;;;;;;;;2.90;81.80;;;;;;4883686;29;19912;-84
2022/03/10 02:35:08;;;;;;;;;;;2.90;81.20;;;;;;4900394;29;19916;-84
2022/03/10 02:37:36;;;;;;;;;;;2.80;81.20;;;;;;4883465;29;20392;-85
2022/03/10 02:40:01;;;;;;;;;;;2.90;81.50;;;;;;4883425;29;20336;-85
2022/03/10 02:42:30;;;;;;;;;;;2.80;81.50;;;;;;4898807;29;19943;-85
2022/03/10 02:45:04;;;;;;;;;;;2.80;81.60;;;;;;4882777;29;20383;-84
2022/03/10 02:47:33;;;;;;;;;;;2.80;81.70;;;;;;4883242;29;19911;-84
2022/03/10 02:49:59;;;;;;;;;;;2.80;81.70;;;;;;4881878;29;20440;-85
2022/03/10 02:52:27;;;;;;;;;;;2.80;81.80;;;;;;4899720;29;19919;-85
2022/03/10 02:54:53;;;;;;;;;;;2.80;81.80;;;;;;4899871;29;19912;-84
2022/03/10 02:57:19;;;;;;;;;;;2.70;81.80;;;;;;4882517;29;19942;-84
2022/03/10 02:59:44;;;;;;;;;;;2.80;82.00;;;;;;4898753;29;19911;-85
2022/03/10 03:02:10;;;;;;;;;;;2.70;82.00;;;;;;4899539;29;19958;-83
2022/03/10 03:04:38;;;;;;;;;;;2.70;82.10;;;;;;4898532;29;19944;-84
2022/03/10 03:07:04;;;;;;;;;;;2.70;82.20;;;;;;4898708;29;19971;-85
2022/03/10 03:09:32;;;;;;;;;;;2.60;82.20;;;;;;4898129;29;19911;-84
2022/03/10 03:11:57;;;;;;;;;;;2.60;82.30;;;;;;4898656;29;19911;-85
2022/03/10 03:14:26;;;;;;;;;;;2.60;82.50;;;;;;4898449;29;20410;-84
2022/03/10 03:16:54;;;;;;;;;;;2.60;82.60;;;;;;4882753;29;19915;-84
2022/03/10 03:19:20;;;;;;;;;;;2.60;82.60;;;;;;4898063;29;19915;-84
2022/03/10 03:21:46;;;;;;;;;;;2.60;82.80;;;;;;4899543;29;20427;-84
2022/03/10 03:24:12;;;;;;;;;;;2.50;82.70;;;;;;4899541;29;19955;-85
2022/03/10 03:26:37;;;;;;;;;;;2.50;82.80;;;;;;4898465;29;20284;-85
2022/03/10 03:29:05;;;;;;;;;;;2.50;82.90;;;;;;4898712;29;19931;-84
2022/03/10 03:31:31;;;;;;;;;;;2.50;82.90;;;;;;4883015;29;20258;-85
2022/03/10 03:33:56;;;;;;;;;;;2.50;83.00;;;;;;4898411;29;19927;-85
2022/03/10 03:36:22;;;;;;;;;;;2.50;83.20;;;;;;4867776;29;19920;-84
2022/03/10 03:38:48;;;;;;;;;;;2.50;83.20;;;;;;4899194;29;19923;-85
2022/03/10 03:41:13;;;;;;;;;;;2.50;83.20;;;;;;4916807;29;19919;-84
2022/03/10 03:43:39;;;;;;;;;;;2.50;83.00;;;;;;4922025;29;19915;-86
2022/03/10 03:46:04;;;;;;;;;;;2.60;82.80;;;;;;4921137;29;19900;-85
2022/03/10 03:48:35;;;;;;;;;;;2.60;83.00;;;;;;4911009;29;19911;-85
2022/03/10 03:51:04;;;;;;;;;;;2.60;83.10;;;;;;4883383;29;19920;-85
2022/03/10 03:53:33;;;;;;;;;;;2.60;83.20;;;;;;4883496;29;19916;-85
2022/03/10 03:55:58;;;;;;;;;;;2.60;83.30;;;;;;4898790;29;19918;-85
2022/03/10 03:58:24;;;;;;;;;;;2.50;83.20;;;;;;4898506;29;19919;-84
2022/03/10 04:00:50;;;;;;;;;;;2.50;83.30;;;;;;4898509;29;20280;-84
2022/03/10 04:03:18;;;;;;;;;;;2.50;83.90;;;;;;4902049;29;19951;-85
2022/03/10 04:05:43;;;;;;;;;;;2.50;83.30;;;;;;4903029;29;19936;-85
2022/03/10 04:08:09;;;;;;;;;;;2.50;83.40;;;;;;4901645;29;19967;-84
2022/03/10 04:10:36;;;;;;;;;;;2.40;83.40;;;;;;4902261;29;19978;-85
2022/03/10 04:13:01;;;;;;;;;;;2.40;83.40;;;;;;4901384;29;19922;-85
2022/03/10 04:15:29;;;;;;;;;;;2.40;83.50;;;;;;4901303;29;19912;-85
2022/03/10 04:17:55;;;;;;;;;;;2.40;83.60;;;;;;4901860;29;19920;-84
2022/03/10 04:20:23;;;;;;;;;;;2.40;83.70;;;;;;4902710;29;19920;-84
2022/03/10 04:22:51;;;;;;;;;;;2.40;83.80;;;;;;4870556;29;19983;-85
2022/03/10 04:25:17;;;;;;;;;;;2.30;83.90;;;;;;4901396;29;19911;-84
2022/03/10 04:27:49;;;;;;;;;;;2.30;84.00;;;;;;4901476;29;20014;-84
2022/03/10 04:30:14;;;;;;;;;;;2.30;84.00;;;;;;4901054;29;20375;-85
2022/03/10 04:32:41;;;;;;;;;;;2.30;84.10;;;;;;4900685;29;19963;-86
2022/03/10 04:35:08;;;;;;;;;;;2.30;84.10;;;;;;4901249;29;19999;-85
2022/03/10 04:37:33;;;;;;;;;;;2.30;84.10;;;;;;4886267;29;19915;-86
2022/03/10 04:40:06;;;;;;;;;;;2.20;84.10;;;;;;4900623;29;19976;-85
2022/03/10 04:42:36;;;;;;;;;;;2.20;84.20;;;;;;4901720;29;19911;-83
2022/03/10 04:45:05;;;;;;;;;;;2.20;84.30;;;;;;4901969;29;20010;-85
2022/03/10 04:47:31;;;;;;;;;;;2.20;84.30;;;;;;4901936;29;19918;-85
2022/03/10 04:49:57;;;;;;;;;;;2.10;84.50;;;;;;4901109;29;19911;-84
2022/03/10 04:52:26;;;;;;;;;;;2.10;84.60;;;;;;4900640;29;19951;-84
2022/03/10 04:54:51;;;;;;;;;;;2.10;84.70;;;;;;4900461;29;19917;-84
2022/03/10 04:57:17;;;;;;;;;;;2.10;84.70;;;;;;4900593;29;19927;-84
2022/03/10 04:59:45;;;;;;;;;;;2.10;84.80;;;;;;4901335;29;19911;-83
2022/03/10 05:02:13;;;;;;;;;;;2.20;84.60;;;;;;4910467;29;19939;-83
2022/03/10 05:04:39;;;;;;;;;;;2.20;84.30;;;;;;4924514;29;19906;-90
2022/03/10 05:07:07;;;;;;;;;;;2.30;84.10;;;;;;4925188;29;19900;-85
2022/03/10 05:09:36;;;;;;;;;;;2.30;84.10;;;;;;4920721;29;19915;-85
2022/03/10 05:12:05;;;;;;;;;;;2.30;84.10;;;;;;4901421;29;19912;-84
2022/03/10 05:14:31;;;;;;;;;;;2.30;84.00;;;;;;4900029;29;19937;-84
2022/03/10 05:17:02;;;;;;;;;;;2.30;83.80;;;;;;4901687;29;20363;-85
2022/03/10 05:19:30;;;;;;;;;;;2.40;83.80;;;;;;4899670;29;19970;-83
2022/03/10 05:21:59;;;;;;;;;;;2.40;83.50;;;;;;4901454;29;19915;-84
2022/03/10 05:24:24;;;;;;;;;;;2.40;83.50;;;;;;4900363;29;19916;-84
2022/03/10 05:26:50;;;;;;;;;;;2.40;83.50;;;;;;4899109;29;20299;-84
2022/03/10 05:29:16;;;;;;;;;;;2.40;83.50;;;;;;4900012;29;19947;-84
2022/03/10 05:32:18;;;;;;;;;;;;;;;;;;;;;
2022/03/10 05:34:46;;;;;;;;;;;2.40;83.80;;;;;;4896913;29;19918;-85
2022/03/10 05:37:15;;;;;;;;;;;2.40;83.90;;;;;;4899820;29;19930;-85
2022/03/10 05:39:43;;;;;;;;;;;2.30;83.80;;;;;;4900860;29;19966;-87
2022/03/10 05:42:09;;;;;;;;;;;2.30;83.80;;;;;;4901524;29;19911;-85
2022/03/10 05:44:46;;;;;;;;;;;2.40;83.60;;;;;;4901305;29;20334;-85
2022/03/10 05:47:14;;;;;;;;;;;2.40;83.30;;;;;;4901324;29;19915;-86
2022/03/10 05:49:49;;;;;;;;;;;;;;;;;;;;;
2022/03/10 05:52:21;;;;;;;;;;;2.50;82.80;;;;;;4883035;29;19938;-86
2022/03/10 05:54:49;;;;;;;;;;;2.60;82.60;;;;;;4865812;29;19959;-85
2022/03/10 05:57:22;;;;;;;;;;;2.60;82.30;;;;;;4874016;29;20432;-86
2022/03/10 05:59:48;;;;;;;;;;;2.60;82.20;;;;;;4884091;29;19979;-86
2022/03/10 06:02:21;;;;;;;;;;;2.60;82.30;;;;;;4883910;29;20371;-86
2022/03/10 06:05:03;;;;;;;;;;;2.60;82.50;;;;;;4884368;29;19944;-86
2022/03/10 06:07:34;;;;;;;;;;;2.50;82.60;;;;;;4884244;29;20011;-85
2022/03/10 06:10:03;;;;;;;;;;;2.50;82.60;;;;;;4884021;29;19912;-84
2022/03/10 06:12:34;;;;;;;;;;;2.50;82.70;;;;;;4884052;29;19912;-85
2022/03/10 06:15:10;;;;;;;;;;;2.50;82.80;;;;;;4883954;29;19959;-84
2022/03/10 06:17:56;;;;;;;;;;;2.50;82.90;;;;;;4884390;29;19920;-87
2022/03/10 06:20:30;;;;;;;;;;;2.50;82.90;;;;;;4900672;29;19916;-85
2022/03/10 06:26:12;;;;;;;;;;;2.50;83.20;;;;;;4920785;29;19899;-89
2022/03/10 06:32:18;;;;;;;;;;;2.40;83.20;;;;;;4902658;29;19916;-89
2022/03/10 06:35:09;;;;;;;;;;;2.40;83.40;;;;;;4841754;29;19912;-85
2022/03/10 06:37:40;;;;;;;;;;;2.40;83.50;;;;;;4877912;29;20054;-85
2022/03/10 06:40:06;;;;;;;;;;;2.40;83.50;;;;;;4882937;29;19950;-86
2022/03/10 06:46:11;;;;;;;;;;;;;;;;;;;;;
2022/03/10 06:52:19;;;;;;;;;;;;;;;;;;;;;
2022/03/10 06:55:09;;;;;;;;;;;;;;;;;;;;;
2022/03/10 06:57:49;;;;;;;;;;;2.60;82.60;;;;;;4882363;29;19924;-87
2022/03/10 07:00:33;;;;;;;;;;;;;;;;;;;;;
2022/03/10 07:03:32;;;;;;;;;;;;;;;;;;;;;
2022/03/10 07:06:13;;;;;;;;;;;;;;;;;;;;;
2022/03/10 07:11:47;;;;;;;;;;;;;;;;;;;;;
2022/03/10 07:21:02;;;;;;;;;;;;;;;;;;;;;
2022/03/10 07:23:33;;;;;;;;;;;3.20;80.40;;;;;;4895276;29;20287;-88
2022/03/10 07:26:24;;;;;;;;;;;3.30;80.10;;;;;;4884345;29;19915;-89
2022/03/10 07:29:14;;;;;;;;;;;3.40;80.00;;;;;;4857851;29;20006;-87
2022/03/10 07:34:54;;;;;;;;;;;;;;;;;;;;;
2022/03/10 07:37:46;;;;;;;;;;;3.70;79.60;;;;;;4909937;29;19991;-88
2022/03/10 07:40:36;;;;;;;;;;;3.80;79.30;;;;;;4888418;29;19934;-84
2022/03/10 07:43:34;;;;;;;;;;;;;;;;;;;;;
2022/03/10 07:46:22;;;;;;;;;;;;;;;;;;;;;
2022/03/10 07:49:34;;;;;;;;;;;4.00;78.90;;;;;;4907683;29;19900;-88
2022/03/10 07:52:42;;;;;;;;;;;;;;;;;;;;;
2022/03/10 07:55:41;;;;;;;;;;;;;;;;;;;;;
2022/03/10 07:58:58;;;;;;;;;;;;;;;;;;;;;
2022/03/10 08:01:33;;;;;;;;;;;4.30;77.80;;;;;;4865089;29;19917;-88
2022/03/10 08:07:32;;;;;;;;;;;;;;;;;;;;;
2022/03/10 08:17:01;;;;;;;;;;;;;;;;;;;;;
2022/03/10 08:23:16;;;;;;;;;;;4.90;76.50;;;;;;4882967;29;20387;-88
2022/03/10 08:26:08;;;;;;;;;;;5.00;76.60;;;;;;4881011;29;19919;-88
2022/03/10 08:35:16;;;;;;;;;;;5.20;76.80;;;;;;4863758;29;20050;-89
2022/03/10 08:37:58;;;;;;;;;;;5.30;76.80;;;;;;4841827;29;19920;-89
2022/03/10 08:40:34;;;;;;;;;;;5.40;76.90;;;;;;4843177;29;19928;-88
2022/03/10 08:43:30;;;;;;;;;;;;;;;;;;;;;
2022/03/10 08:46:32;;;;;;;;;;;5.60;77.00;;;;;;4899644;29;19955;-89
2022/03/10 08:49:36;;;;;;;;;;;5.70;76.90;;;;;;4894272;29;19919;-91
2022/03/10 08:52:22;;;;;;;;;;;;;;;;;;;;;
2022/03/10 08:55:17;;;;;;;;;;;5.80;76.90;;;;;;4903323;29;20284;-88
2022/03/10 09:01:38;;;;;;;;;;;;;;;;;;;;;
2022/03/10 09:04:20;;;;;;;;;;;;;;;;;;;;;
2022/03/10 09:15:49;;;;;;;;;;;;;;;;;;;;;
2022/03/10 09:19:12;;;;;;;;;;;;;;;;;;;;;
2022/03/10 09:22:09;;;;;;;;;;;6.80;74.80;;;;;;4920264;29;19923;-88
2022/03/10 09:37:07;;;;;;;;;;;;;;;;;;;;;
2022/03/10 09:45:59;;;;;;;;;;;;;;;;;;;;;
2022/03/10 09:49:04;;;;;;;;;;;;;;;;;;;;;
2022/03/10 09:58:11;;;;;;;;;;;;;;;;;;;;;
2022/03/10 10:01:08;;;;;;;;;;;;;;;;;;;;;
2022/03/10 10:03:41;;;;;;;;;;;8.40;72.00;;;;;;4894780;29;19923;-89
2022/03/10 10:09:17;;;;;;;;;;;8.60;71.60;;;;;;4897894;29;19919;-88
2022/03/10 10:12:35;;;;;;;;;;;8.70;71.60;;;;;;4901058;29;20312;-89
2022/03/10 10:18:23;;;;;;;;;;;8.90;71.10;;;;;;4862369;29;19971;-90
2022/03/10 10:24:55;;;;;;;;;;;9.10;70.00;;;;;;4887598;29;19923;-89
2022/03/10 10:30:46;;;;;;;;;;;;;;;;;;;;;
2022/03/10 10:33:44;;;;;;;;;;;;;;;;;;;;;
2022/03/10 10:36:31;;;;;;;;;;;9.50;70.10;;;;;;4895558;29;19912;-89
2022/03/10 10:51:41;;;;;;;;;;;10.00;69.90;;;;;;4884914;29;19925;-89
2022/03/10 10:57:52;;;;;;;;;;;10.10;70.00;;;;;;4828326;29;19932;-93
2022/03/10 11:00:51;;;;;;;;;;;10.30;70.00;;;;;;4834352;29;19916;-90
2022/03/10 11:04:07;;;;;;;;;;;;;;;;;;;;;
2022/03/10 11:19:20;;;;;;;;;;;;;;;;;;;;;
2022/03/10 11:22:02;;;;;;;;;;;10.70;70.20;;;;;;4860586;29;19917;-90
2022/03/10 11:24:36;;;;;;;;;;;10.80;70.00;;;;;;4861010;29;19999;-90
2022/03/10 11:34:14;;;;;;;;;;;;;;;;;;;;;
2022/03/10 11:40:29;;;;;;;;;;;;;;;;;;;;;
2022/03/10 11:43:20;;;;;;;;;;;11.40;67.10;;;;;;4806386;29;20301;-89
2022/03/10 11:58:26;;;;;;;;;;;;;;;;;;;;;
2022/03/10 12:04:43;;;;;;;;;;;;;;;;;;;;;
2022/03/10 12:14:13;;;;;;;;;;;;;;;;;;;;;
2022/03/10 12:20:28;;;;;;;;;;;12.20;64.80;;;;;;4827095;29;19928;-90
2022/03/10 12:54:29;;;;;;;;;;;;;;;;;;;;;
2022/03/10 13:06:42;;;;;;;;;;;;;;;;;;;;;
2022/03/10 13:09:43;;;;;;;;;;;13.00;62.70;;;;;;4826910;29;19913;-91
2022/03/10 13:12:38;;;;;;;;;;;13.00;63.00;;;;;;4755244;30;19934;-90
2022/03/10 13:15:52;;;;;;;;;;;;;;;;;;;;;
2022/03/10 13:29:07;;;;;;;;;;;13.40;63.10;;;;;;4806043;29;20315;-91
2022/03/10 13:31:37;;;;;;;;;;;;;;;;;;;;;
2022/03/10 13:44:24;;;;;;;;;;;;;;;;;;;;;
2022/03/10 13:47:18;;;;;;;;;;;;;;;;;;;;;
2022/03/10 13:56:30;;;;;;;;;;;;;;;;;;;;;
2022/03/10 14:02:53;;;;;;;;;;;13.80;62.20;;;;;;4868854;29;19909;-89
2022/03/10 14:06:14;;;;;;;;;;;;;;;;;;;;;
2022/03/10 16:23:36;;;;;;;;;;;;;;;;;;;;;
2022/03/10 16:26:18;;;;;;;;;;;;;;;;;;;;;
2022/03/10 16:29:22;;;;;;;;;;;14.20;55.40;;;;;;4848261;29;19919;-89
2022/03/10 16:48:16;;;;;;;;;;;;;;;;;;;;;
2022/03/10 17:00:47;;;;;;;;;;;;;;;;;;;;;
2022/03/10 17:09:09;;;;;;;;;;;13.10;55.20;;;;;;4736880;30;19914;-91
2022/03/10 17:31:48;;;;;;;;;;;;;;;;;;;;;
2022/03/10 17:37:40;;;;;;;;;;;12.30;56.50;;;;;;4672745;30;19909;-92
2022/03/10 21:38:39;;;;;;;;;;;8.50;62.90;;;;;;6121662;23;20003;-92
2022/03/10 21:42:43;;;;;;;;;;;;;;;;;;;;;
2022/03/10 21:54:46;;;;;;;;;;;8.20;63.80;;;;;;5938994;24;19907;-92
2022/03/10 22:16:42;;;;;;;;;;;;;;;;;;;;;
2022/03/10 22:22:49;;;;;;;;;;;;;;;;;;;;;
2022/03/10 22:54:50;;;;;;;;;;;;;;;;;;;;;
2022/03/10 22:58:00;;;;;;;;;;;8.00;63.50;;;;;;5625976;25;19997;-91
2022/03/10 23:01:22;;;;;;;;;;;;;;;;;;;;;
2022/03/10 23:14:01;;;;;;;;;;;;;;;;;;;;;
2022/03/10 23:17:15;;;;;;;;;;;8.00;63.20;;;;;;5874925;24;19956;-90
2022/03/10 23:27:09;;;;;;;;;;;;;;;;;;;;;
2022/03/10 23:29:43;;;;;;;;;;;8.00;62.70;;;;;;5890882;24;20031;-91
2022/03/10 23:32:52;;;;;;;;;;;;;;;;;;;;;
2022/03/10 23:45:08;;;;;;;;;;;7.90;62.00;;;;;;6068734;23;19912;-92
2022/03/10 23:57:08;;;;;;;;;;;7.80;61.70;;;;;;6095764;23;19901;-92
